Jacobsdal, South Africa
Current Conditions -  °F | °C
As of 12:00 AM on Monday 24 Nov 2014 (Local Time) from FABL Reporting Station
Light Rain Light Rain  
Wind Chill: 59°   Ceiling: NA
Heat Index: 59°   Visibility: 6mi
Dew Point: 54°   Wind: 8mph
Humidity: 82%   Direction: 40°NE
Pressure: 30.15"   Gusts: NA
Location:  29.13°S, 24.77°E
Report Text: FABL 232200Z AUTO 04007KT 9999 -RA ////// 15/12 Q1021 RESHRA
Loading
Personal Weather Stations






























Interactive Weather Map New forecast layout! Learn more

10-Day Weather Forecast

Advertisements
Track Severe Weather on mobile